sensor_id;sensor_type;location;lat;lon;timestamp;noise_LAeq;noise_LA_min;noise_LA_max;noise_LA01;noise_LA95
71034;Laerm;58847;52.378;4.740;2022-09-29T00:00:10;45.32;37.56;64.54;;
71034;Laerm;58847;52.378;4.740;2022-09-29T00:00:20;38.91;36.37;44.86;;
71034;Laerm;58847;52.378;4.740;2022-09-29T00:00:31;39.47;35.74;57.86;;
71034;Laerm;58847;52.378;4.740;2022-09-29T00:00:41;37.83;34.94;49.42;;
71034;Laerm;58847;52.378;4.740;2022-09-29T00:00:52;38.46;35.11;48.99;;
71034;Laerm;58847;52.378;4.740;2022-09-29T00:01:02;38.80;36.22;49.70;;
71034;Laerm;58847;52.378;4.740;2022-09-29T00:01:13;42.24;36.21;62.68;;
71034;Laerm;58847;52.378;4.740;2022-09-29T00:01:24;40.00;35.12;54.10;;
71034;Laerm;58847;52.378;4.740;2022-09-29T00:01:35;39.85;35.65;52.16;;
71034;Laerm;58847;52.378;4.740;2022-09-29T00:01:45;40.64;35.63;54.61;;
71034;Laerm;58847;52.378;4.740;2022-09-29T00:01:55;38.07;35.57;44.92;;
71034;Laerm;58847;52.378;4.740;2022-09-29T00:02:05;43.08;36.10;60.87;;
71034;Laerm;58847;52.378;4.740;2022-09-29T00:02:16;39.63;35.93;48.73;;
71034;Laerm;58847;52.378;4.740;2022-09-29T00:02:26;40.22;36.96;52.88;;
71034;Laerm;58847;52.378;4.740;2022-09-29T00:02:39;40.32;36.19;57.51;;
71034;Laerm;58847;52.378;4.740;2022-09-29T00:02:50;38.45;35.40;45.56;;
71034;Laerm;58847;52.378;4.740;2022-09-29T00:03:00;40.63;36.06;57.18;;
71034;Laerm;58847;52.378;4.740;2022-09-29T00:03:11;41.65;35.27;63.30;;
71034;Laerm;58847;52.378;4.740;2022-09-29T00:03:21;42.06;35.50;61.86;;
71034;Laerm;58847;52.378;4.740;2022-09-29T00:03:32;39.71;35.17;58.49;;
71034;Laerm;58847;52.378;4.740;2022-09-29T00:03:42;37.87;35.10;44.65;;
71034;Laerm;58847;52.378;4.740;2022-09-29T00:03:53;40.09;34.85;60.66;;
71034;Laerm;58847;52.378;4.740;2022-09-29T00:04:03;37.56;34.79;49.18;;
71034;Laerm;58847;52.378;4.740;2022-09-29T00:04:13;37.70;34.66;49.77;;
71034;Laerm;58847;52.378;4.740;2022-09-29T00:04:23;38.06;34.46;53.44;;
71034;Laerm;58847;52.378;4.740;2022-09-29T00:04:34;39.80;35.96;58.55;;
71034;Laerm;58847;52.378;4.740;2022-09-29T00:04:44;38.91;34.54;55.59;;
71034;Laerm;58847;52.378;4.740;2022-09-29T00:04:54;37.28;34.10;49.92;;
71034;Laerm;58847;52.378;4.740;2022-09-29T00:05:04;36.40;33.73;43.94;;
71034;Laerm;58847;52.378;4.740;2022-09-29T00:05:15;40.49;33.81;58.76;;
71034;Laerm;58847;52.378;4.740;2022-09-29T00:05:25;38.62;33.76;57.71;;
71034;Laerm;58847;52.378;4.740;2022-09-29T00:05:35;37.94;34.70;48.90;;
71034;Laerm;58847;52.378;4.740;2022-09-29T00:05:50;47.74;35.46;68.30;;
71034;Laerm;58847;52.378;4.740;2022-09-29T00:06:02;38.96;35.56;56.13;;
71034;Laerm;58847;52.378;4.740;2022-09-29T00:06:14;38.54;35.38;52.84;;
71034;Laerm;58847;52.378;4.740;2022-09-29T00:06:24;37.50;34.61;42.29;;
71034;Laerm;58847;52.378;4.740;2022-09-29T00:06:34;39.02;34.73;49.84;;
71034;Laerm;58847;52.378;4.740;2022-09-29T00:06:45;37.46;35.10;41.10;;
71034;Laerm;58847;52.378;4.740;2022-09-29T00:06:55;38.33;34.59;55.80;;
71034;Laerm;58847;52.378;4.740;2022-09-29T00:07:24;41.00;34.68;62.19;;
71034;Laerm;58847;52.378;4.740;2022-09-29T00:07:37;40.98;34.49;63.06;;
71034;Laerm;58847;52.378;4.740;2022-09-29T00:07:47;37.93;34.53;51.40;;
71034;Laerm;58847;52.378;4.740;2022-09-29T00:07:58;46.65;33.85;68.55;;
71034;Laerm;58847;52.378;4.740;2022-09-29T00:08:08;44.80;34.04;66.56;;
71034;Laerm;58847;52.378;4.740;2022-09-29T00:08:19;36.87;34.40;42.37;;
71034;Laerm;58847;52.378;4.740;2022-09-29T00:08:29;38.47;33.52;54.93;;
71034;Laerm;58847;52.378;4.740;2022-09-29T00:08:40;39.43;33.31;57.78;;
71034;Laerm;58847;52.378;4.740;2022-09-29T00:08:51;37.09;33.73;52.05;;
71034;Laerm;58847;52.378;4.740;2022-09-29T00:09:01;36.99;34.20;44.71;;
71034;Laerm;58847;52.378;4.740;2022-09-29T00:09:11;40.17;34.81;59.13;;
71034;Laerm;58847;52.378;4.740;2022-09-29T00:09:21;38.57;35.09;47.54;;
71034;Laerm;58847;52.378;4.740;2022-09-29T00:09:31;39.11;35.86;49.84;;
71034;Laerm;58847;52.378;4.740;2022-09-29T00:09:42;40.77;35.58;57.37;;
71034;Laerm;58847;52.378;4.740;2022-09-29T00:09:52;38.73;34.73;47.97;;
71034;Laerm;58847;52.378;4.740;2022-09-29T00:10:02;47.11;35.27;69.93;;
71034;Laerm;58847;52.378;4.740;2022-09-29T00:10:13;40.89;36.36;59.58;;
71034;Laerm;58847;52.378;4.740;2022-09-29T00:10:23;40.34;38.06;43.18;;
71034;Laerm;58847;52.378;4.740;2022-09-29T00:10:34;42.81;37.00;60.94;;
71034;Laerm;58847;52.378;4.740;2022-09-29T00:10:48;37.78;34.03;42.51;;
71034;Laerm;58847;52.378;4.740;2022-09-29T00:10:59;38.74;33.76;55.66;;
71034;Laerm;58847;52.378;4.740;2022-09-29T00:11:11;43.93;34.39;65.88;;
71034;Laerm;58847;52.378;4.740;2022-09-29T00:11:21;38.44;34.30;51.33;;
71034;Laerm;58847;52.378;4.740;2022-09-29T00:11:31;38.41;35.12;49.99;;
71034;Laerm;58847;52.378;4.740;2022-09-29T00:11:42;41.41;34.71;60.89;;
71034;Laerm;58847;52.378;4.740;2022-09-29T00:11:53;37.48;34.44;48.90;;
71034;Laerm;58847;52.378;4.740;2022-09-29T00:12:04;42.03;35.09;58.59;;
71034;Laerm;58847;52.378;4.740;2022-09-29T00:12:14;37.23;34.88;43.02;;
71034;Laerm;58847;52.378;4.740;2022-09-29T00:12:24;38.09;34.80;51.12;;
71034;Laerm;58847;52.378;4.740;2022-09-29T00:12:35;37.94;35.03;44.79;;
71034;Laerm;58847;52.378;4.740;2022-09-29T00:12:45;40.15;34.87;58.10;;
71034;Laerm;58847;52.378;4.740;2022-09-29T00:12:56;39.65;35.31;59.73;;
71034;Laerm;58847;52.378;4.740;2022-09-29T00:13:06;37.48;34.80;48.53;;
71034;Laerm;58847;52.378;4.740;2022-09-29T00:13:16;38.00;34.59;44.94;;
71034;Laerm;58847;52.378;4.740;2022-09-29T00:13:27;48.75;35.40;72.97;;
71034;Laerm;58847;52.378;4.740;2022-09-29T00:13:37;40.02;35.93;56.22;;
71034;Laerm;58847;52.378;4.740;2022-09-29T00:13:47;40.45;35.95;56.10;;
71034;Laerm;58847;52.378;4.740;2022-09-29T00:13:58;39.64;36.14;54.41;;
71034;Laerm;58847;52.378;4.740;2022-09-29T00:14:08;40.52;36.31;54.09;;
71034;Laerm;58847;52.378;4.740;2022-09-29T00:14:18;38.69;35.49;42.86;;
71034;Laerm;58847;52.378;4.740;2022-09-29T00:14:29;38.34;34.50;51.00;;
71034;Laerm;58847;52.378;4.740;2022-09-29T00:14:39;38.60;33.97;53.14;;
71034;Laerm;58847;52.378;4.740;2022-09-29T00:14:49;38.62;34.22;53.95;;
71034;Laerm;58847;52.378;4.740;2022-09-29T00:14:59;38.79;34.89;54.12;;
71034;Laerm;58847;52.378;4.740;2022-09-29T00:15:10;39.46;34.07;57.71;;
71034;Laerm;58847;52.378;4.740;2022-09-29T00:15:20;37.82;34.74;49.59;;
71034;Laerm;58847;52.378;4.740;2022-09-29T00:15:30;38.14;35.51;48.17;;
71034;Laerm;58847;52.378;4.740;2022-09-29T00:15:40;45.65;35.75;67.14;;
71034;Laerm;58847;52.378;4.740;2022-09-29T00:15:57;41.42;35.86;59.68;;
71034;Laerm;58847;52.378;4.740;2022-09-29T00:16:08;42.40;35.88;62.07;;
71034;Laerm;58847;52.378;4.740;2022-09-29T00:16:19;37.43;34.36;43.80;;
71034;Laerm;58847;52.378;4.740;2022-09-29T00:16:29;40.10;34.85;61.27;;
71034;Laerm;58847;52.378;4.740;2022-09-29T00:16:39;38.08;34.35;46.07;;
71034;Laerm;58847;52.378;4.740;2022-09-29T00:16:49;41.65;34.97;60.70;;
71034;Laerm;58847;52.378;4.740;2022-09-29T00:16:59;39.69;35.26;56.96;;
71034;Laerm;58847;52.378;4.740;2022-09-29T00:17:10;38.16;35.78;42.08;;
71034;Laerm;58847;52.378;4.740;2022-09-29T00:17:20;38.19;34.54;53.86;;
71034;Laerm;58847;52.378;4.740;2022-09-29T00:17:30;38.04;34.10;56.46;;
71034;Laerm;58847;52.378;4.740;2022-09-29T00:17:41;37.31;34.37;47.18;;
71034;Laerm;58847;52.378;4.740;2022-09-29T00:17:51;39.45;34.78;54.93;;
71034;Laerm;58847;52.378;4.740;2022-09-29T00:18:01;44.09;35.73;65.88;;
71034;Laerm;58847;52.378;4.740;2022-09-29T00:18:12;42.48;34.82;60.64;;
71034;Laerm;58847;52.378;4.740;2022-09-29T00:18:22;43.07;35.20;64.46;;
71034;Laerm;58847;52.378;4.740;2022-09-29T00:18:32;44.88;35.68;62.77;;
71034;Laerm;58847;52.378;4.740;2022-09-29T00:18:43;40.01;35.83;55.85;;
71034;Laerm;58847;52.378;4.740;2022-09-29T00:18:53;37.93;34.93;43.63;;
71034;Laerm;58847;52.378;4.740;2022-09-29T00:19:04;37.60;35.03;49.73;;
71034;Laerm;58847;52.378;4.740;2022-09-29T00:19:14;40.49;35.16;59.27;;
71034;Laerm;58847;52.378;4.740;2022-09-29T00:19:24;37.65;35.14;41.77;;
71034;Laerm;58847;52.378;4.740;2022-09-29T00:19:36;40.95;35.02;58.92;;
71034;Laerm;58847;52.378;4.740;2022-09-29T00:19:46;38.89;36.02;46.02;;
71034;Laerm;58847;52.378;4.740;2022-09-29T00:19:59;38.26;35.69;47.85;;
71034;Laerm;58847;52.378;4.740;2022-09-29T00:20:10;37.18;34.39;51.50;;
71034;Laerm;58847;52.378;4.740;2022-09-29T00:20:20;37.54;33.97;45.39;;
71034;Laerm;58847;52.378;4.740;2022-09-29T00:20:31;37.77;34.36;52.86;;
71034;Laerm;58847;52.378;4.740;2022-09-29T00:20:41;38.63;34.38;55.94;;
71034;Laerm;58847;52.378;4.740;2022-09-29T00:21:05;39.96;34.89;55.18;;
71034;Laerm;58847;52.378;4.740;2022-09-29T00:21:16;37.89;33.86;45.05;;
71034;Laerm;58847;52.378;4.740;2022-09-29T00:21:28;38.22;35.63;47.98;;
71034;Laerm;58847;52.378;4.740;2022-09-29T00:21:38;45.36;34.85;67.57;;
71034;Laerm;58847;52.378;4.740;2022-09-29T00:21:49;40.00;35.62;59.01;;
71034;Laerm;58847;52.378;4.740;2022-09-29T00:21:59;41.83;35.90;60.86;;
71034;Laerm;58847;52.378;4.740;2022-09-29T00:22:09;43.62;35.81;63.61;;
71034;Laerm;58847;52.378;4.740;2022-09-29T00:22:19;38.54;34.41;50.58;;
71034;Laerm;58847;52.378;4.740;2022-09-29T00:22:30;41.26;34.87;62.96;;
71034;Laerm;58847;52.378;4.740;2022-09-29T00:22:40;38.98;35.68;55.46;;
71034;Laerm;58847;52.378;4.740;2022-09-29T00:22:50;39.46;35.69;51.86;;
71034;Laerm;58847;52.378;4.740;2022-09-29T00:23:01;45.38;35.39;66.24;;
71034;Laerm;58847;52.378;4.740;2022-09-29T00:23:11;37.39;34.92;42.09;;
71034;Laerm;58847;52.378;4.740;2022-09-29T00:23:25;39.17;35.38;55.52;;
71034;Laerm;58847;52.378;4.740;2022-09-29T00:23:36;39.81;36.31;50.81;;
71034;Laerm;58847;52.378;4.740;2022-09-29T00:23:47;38.32;34.29;51.15;;
71034;Laerm;58847;52.378;4.740;2022-09-29T00:23:59;38.29;35.11;46.34;;
71034;Laerm;58847;52.378;4.740;2022-09-29T00:24:09;39.68;34.89;53.03;;
71034;Laerm;58847;52.378;4.740;2022-09-29T00:24:20;38.24;35.44;42.93;;
71034;Laerm;58847;52.378;4.740;2022-09-29T00:24:30;37.61;34.81;45.63;;
71034;Laerm;58847;52.378;4.740;2022-09-29T00:24:40;45.14;34.73;67.56;;
71034;Laerm;58847;52.378;4.740;2022-09-29T00:24:50;39.03;36.65;44.19;;
71034;Laerm;58847;52.378;4.740;2022-09-29T00:25:00;38.87;36.32;47.72;;
71034;Laerm;58847;52.378;4.740;2022-09-29T00:25:11;38.58;35.53;50.03;;
71034;Laerm;58847;52.378;4.740;2022-09-29T00:25:21;40.38;35.02;59.94;;
71034;Laerm;58847;52.378;4.740;2022-09-29T00:25:31;41.06;36.06;61.59;;
71034;Laerm;58847;52.378;4.740;2022-09-29T00:25:42;42.20;35.48;60.61;;
71034;Laerm;58847;52.378;4.740;2022-09-29T00:26:31;41.64;34.58;67.06;;
71034;Laerm;58847;52.378;4.740;2022-09-29T00:26:42;40.96;37.64;58.96;;
71034;Laerm;58847;52.378;4.740;2022-09-29T00:26:55;38.99;35.77;43.84;;
71034;Laerm;58847;52.378;4.740;2022-09-29T00:27:06;40.94;35.51;59.51;;
71034;Laerm;58847;52.378;4.740;2022-09-29T00:27:16;37.92;35.40;42.54;;
71034;Laerm;58847;52.378;4.740;2022-09-29T00:27:28;39.60;36.12;52.06;;
71034;Laerm;58847;52.378;4.740;2022-09-29T00:27:38;39.02;35.87;53.53;;
71034;Laerm;58847;52.378;4.740;2022-09-29T00:27:48;40.82;35.58;58.30;;
71034;Laerm;58847;52.378;4.740;2022-09-29T00:27:58;37.29;34.77;42.16;;
71034;Laerm;58847;52.378;4.740;2022-09-29T00:28:09;38.20;35.66;44.46;;
71034;Laerm;58847;52.378;4.740;2022-09-29T00:28:19;42.90;36.11;61.82;;
71034;Laerm;58847;52.378;4.740;2022-09-29T00:28:32;38.45;35.09;44.68;;
71034;Laerm;58847;52.378;4.740;2022-09-29T00:29:00;38.93;35.68;50.73;;
71034;Laerm;58847;52.378;4.740;2022-09-29T00:29:12;42.83;34.42;68.45;;
71034;Laerm;58847;52.378;4.740;2022-09-29T00:29:22;43.85;33.95;65.51;;
71034;Laerm;58847;52.378;4.740;2022-09-29T00:29:34;37.22;34.10;50.08;;
71034;Laerm;58847;52.378;4.740;2022-09-29T00:29:45;40.25;33.56;59.76;;
71034;Laerm;58847;52.378;4.740;2022-09-29T00:29:55;37.14;34.50;41.37;;
71034;Laerm;58847;52.378;4.740;2022-09-29T00:30:05;37.91;34.42;51.50;;
71034;Laerm;58847;52.378;4.740;2022-09-29T00:30:16;37.81;35.07;47.78;;
71034;Laerm;58847;52.378;4.740;2022-09-29T00:30:26;38.97;34.68;55.23;;
71034;Laerm;58847;52.378;4.740;2022-09-29T00:30:36;48.01;34.84;71.33;;
71034;Laerm;58847;52.378;4.740;2022-09-29T00:30:47;42.48;35.80;62.18;;
71034;Laerm;58847;52.378;4.740;2022-09-29T00:30:58;46.12;34.75;69.23;;
71034;Laerm;58847;52.378;4.740;2022-09-29T00:31:09;40.53;35.26;59.89;;
71034;Laerm;58847;52.378;4.740;2022-09-29T00:31:20;39.22;35.26;54.88;;
71034;Laerm;58847;52.378;4.740;2022-09-29T00:31:32;45.32;35.10;67.25;;
71034;Laerm;58847;52.378;4.740;2022-09-29T00:31:42;40.35;35.21;60.89;;
71034;Laerm;58847;52.378;4.740;2022-09-29T00:31:53;38.31;35.36;51.76;;
71034;Laerm;58847;52.378;4.740;2022-09-29T00:32:03;39.05;35.65;51.92;;
71034;Laerm;58847;52.378;4.740;2022-09-29T00:32:13;38.60;36.25;43.19;;
71034;Laerm;58847;52.378;4.740;2022-09-29T00:32:23;38.68;35.63;51.25;;
71034;Laerm;58847;52.378;4.740;2022-09-29T00:32:33;40.79;36.00;60.33;;
71034;Laerm;58847;52.378;4.740;2022-09-29T00:32:44;41.46;35.90;59.88;;
71034;Laerm;58847;52.378;4.740;2022-09-29T00:32:54;39.16;35.22;55.41;;
71034;Laerm;58847;52.378;4.740;2022-09-29T00:33:04;43.28;35.36;63.92;;
71034;Laerm;58847;52.378;4.740;2022-09-29T00:33:14;44.30;34.50;66.55;;
71034;Laerm;58847;52.378;4.740;2022-09-29T00:33:25;37.56;34.47;43.10;;
71034;Laerm;58847;52.378;4.740;2022-09-29T00:33:35;38.47;34.22;54.42;;
71034;Laerm;58847;52.378;4.740;2022-09-29T00:33:46;39.62;35.13;58.36;;
71034;Laerm;58847;52.378;4.740;2022-09-29T00:33:56;38.63;35.53;53.58;;
71034;Laerm;58847;52.378;4.740;2022-09-29T00:34:07;51.46;35.84;73.38;;
71034;Laerm;58847;52.378;4.740;2022-09-29T00:34:17;39.49;35.82;52.10;;
71034;Laerm;58847;52.378;4.740;2022-09-29T00:34:28;39.17;35.73;49.85;;
71034;Laerm;58847;52.378;4.740;2022-09-29T00:34:38;39.44;36.36;51.69;;
71034;Laerm;58847;52.378;4.740;2022-09-29T00:34:48;38.99;35.00;52.50;;
71034;Laerm;58847;52.378;4.740;2022-09-29T00:35:00;38.80;33.52;56.13;;
71034;Laerm;58847;52.378;4.740;2022-09-29T00:35:10;38.62;34.56;57.92;;
71034;Laerm;58847;52.378;4.740;2022-09-29T00:35:20;38.24;35.25;46.34;;
71034;Laerm;58847;52.378;4.740;2022-09-29T00:35:30;39.93;35.19;51.62;;
71034;Laerm;58847;52.378;4.740;2022-09-29T00:35:40;39.30;35.47;54.57;;
71034;Laerm;58847;52.378;4.740;2022-09-29T00:36:24;38.95;36.04;43.05;;
71034;Laerm;58847;52.378;4.740;2022-09-29T00:36:27;42.73;36.49;63.44;;
71034;Laerm;58847;52.378;4.740;2022-09-29T00:36:39;40.77;38.20;47.65;;
71034;Laerm;58847;52.378;4.740;2022-09-29T00:36:50;41.52;37.24;47.61;;
71034;Laerm;58847;52.378;4.740;2022-09-29T00:37:00;47.54;36.69;68.54;;
71034;Laerm;58847;52.378;4.740;2022-09-29T00:37:10;42.55;36.98;62.07;;
71034;Laerm;58847;52.378;4.740;2022-09-29T00:37:21;44.91;37.34;67.34;;
71034;Laerm;58847;52.378;4.740;2022-09-29T00:37:31;44.22;37.87;65.15;;
71034;Laerm;58847;52.378;4.740;2022-09-29T00:37:41;42.08;36.64;59.27;;
71034;Laerm;58847;52.378;4.740;2022-09-29T00:37:51;38.42;36.04;49.88;;
71034;Laerm;58847;52.378;4.740;2022-09-29T00:38:02;46.59;35.83;69.60;;
71034;Laerm;58847;52.378;4.740;2022-09-29T00:38:12;38.92;36.10;51.18;;
71034;Laerm;58847;52.378;4.740;2022-09-29T00:38:22;39.09;36.39;55.26;;
71034;Laerm;58847;52.378;4.740;2022-09-29T00:38:33;39.23;35.18;55.09;;
71034;Laerm;58847;52.378;4.740;2022-09-29T00:38:44;38.89;35.83;52.58;;
71034;Laerm;58847;52.378;4.740;2022-09-29T00:38:56;40.98;36.37;58.93;;
71034;Laerm;58847;52.378;4.740;2022-09-29T00:39:07;40.84;35.98;56.85;;
71034;Laerm;58847;52.378;4.740;2022-09-29T00:39:17;38.70;36.34;43.90;;
71034;Laerm;58847;52.378;4.740;2022-09-29T00:39:27;42.51;37.07;61.05;;
71034;Laerm;58847;52.378;4.740;2022-09-29T00:39:37;38.79;35.60;48.43;;
71034;Laerm;58847;52.378;4.740;2022-09-29T00:39:48;45.48;35.05;68.26;;
71034;Laerm;58847;52.378;4.740;2022-09-29T00:39:58;37.25;34.97;47.05;;
71034;Laerm;58847;52.378;4.740;2022-09-29T00:40:08;38.05;34.47;44.69;;
71034;Laerm;58847;52.378;4.740;2022-09-29T00:40:18;39.57;35.97;51.35;;
71034;Laerm;58847;52.378;4.740;2022-09-29T00:40:29;45.81;36.27;66.83;;
71034;Laerm;58847;52.378;4.740;2022-09-29T00:40:39;41.18;36.09;60.74;;
71034;Laerm;58847;52.378;4.740;2022-09-29T00:40:49;39.08;34.92;54.70;;
71034;Laerm;58847;52.378;4.740;2022-09-29T00:40:59;39.40;35.42;58.03;;
71034;Laerm;58847;52.378;4.740;2022-09-29T00:41:12;39.50;36.16;56.39;;
71034;Laerm;58847;52.378;4.740;2022-09-29T00:41:31;43.85;36.13;63.99;;
71034;Laerm;58847;52.378;4.740;2022-09-29T00:41:41;39.90;36.66;50.90;;
71034;Laerm;58847;52.378;4.740;2022-09-29T00:41:51;42.08;38.67;49.50;;
71034;Laerm;58847;52.378;4.740;2022-09-29T00:42:02;42.69;39.85;46.79;;
71034;Laerm;58847;52.378;4.740;2022-09-29T00:42:12;42.29;37.53;60.10;;
71034;Laerm;58847;52.378;4.740;2022-09-29T00:42:26;45.64;37.19;68.33;;
71034;Laerm;58847;52.378;4.740;2022-09-29T00:42:36;44.50;37.92;67.12;;
71034;Laerm;58847;52.378;4.740;2022-09-29T00:42:47;45.88;38.04;65.63;;
71034;Laerm;58847;52.378;4.740;2022-09-29T00:42:57;43.94;38.77;64.18;;
71034;Laerm;58847;52.378;4.740;2022-09-29T00:43:09;41.73;38.64;54.33;;
71034;Laerm;58847;52.378;4.740;2022-09-29T00:44:01;44.16;38.28;50.53;;
71034;Laerm;58847;52.378;4.740;2022-09-29T00:45:12;41.13;37.53;55.68;;
71034;Laerm;58847;52.378;4.740;2022-09-29T00:45:24;40.13;36.42;48.02;;
71034;Laerm;58847;52.378;4.740;2022-09-29T00:45:34;41.05;37.40;52.72;;
71034;Laerm;58847;52.378;4.740;2022-09-29T00:45:45;41.45;39.10;45.05;;
71034;Laerm;58847;52.378;4.740;2022-09-29T00:45:56;41.01;38.39;46.27;;
71034;Laerm;58847;52.378;4.740;2022-09-29T00:46:06;41.22;38.14;50.18;;
71034;Laerm;58847;52.378;4.740;2022-09-29T00:46:27;41.81;39.59;52.16;;
71034;Laerm;58847;52.378;4.740;2022-09-29T00:46:59;41.59;37.33;53.07;;
71034;Laerm;58847;52.378;4.740;2022-09-29T00:47:14;42.28;37.39;59.51;;
71034;Laerm;58847;52.378;4.740;2022-09-29T00:47:25;40.83;36.86;58.62;;
71034;Laerm;58847;52.378;4.740;2022-09-29T00:47:36;40.34;36.48;50.71;;
71034;Laerm;58847;52.378;4.740;2022-09-29T00:47:49;42.33;36.45;64.00;;
71034;Laerm;58847;52.378;4.740;2022-09-29T00:48:04;40.59;36.34;58.19;;
71034;Laerm;58847;52.378;4.740;2022-09-29T00:48:17;41.87;35.52;60.57;;
71034;Laerm;58847;52.378;4.740;2022-09-29T00:48:31;40.40;36.31;58.08;;
71034;Laerm;58847;52.378;4.740;2022-09-29T00:48:42;38.37;35.75;42.61;;
71034;Laerm;58847;52.378;4.740;2022-09-29T00:48:53;38.90;36.24;42.86;;
71034;Laerm;58847;52.378;4.740;2022-09-29T00:49:16;42.93;38.45;60.26;;
71034;Laerm;58847;52.378;4.740;2022-09-29T00:49:28;42.41;36.18;59.28;;
71034;Laerm;58847;52.378;4.740;2022-09-29T00:49:42;38.71;36.39;43.09;;
71034;Laerm;58847;52.378;4.740;2022-09-29T00:49:58;45.76;37.14;67.18;;
71034;Laerm;58847;52.378;4.740;2022-09-29T00:50:19;41.07;37.86;53.75;;
71034;Laerm;58847;52.378;4.740;2022-09-29T00:50:41;41.87;37.83;62.00;;
71034;Laerm;58847;52.378;4.740;2022-09-29T00:50:53;43.85;37.08;67.34;;
71034;Laerm;58847;52.378;4.740;2022-09-29T00:51:05;39.35;36.81;45.78;;
71034;Laerm;58847;52.378;4.740;2022-09-29T00:51:15;38.58;36.06;48.76;;
71034;Laerm;58847;52.378;4.740;2022-09-29T00:51:26;37.92;35.00;45.14;;
71034;Laerm;58847;52.378;4.740;2022-09-29T00:51:38;39.87;36.88;44.38;;
71034;Laerm;58847;52.378;4.740;2022-09-29T00:51:53;39.28;36.41;49.09;;
71034;Laerm;58847;52.378;4.740;2022-09-29T00:52:30;41.77;38.64;57.36;;
71034;Laerm;58847;52.378;4.740;2022-09-29T00:52:43;41.21;38.61;52.31;;
71034;Laerm;58847;52.378;4.740;2022-09-29T00:52:56;40.48;37.53;45.70;;
71034;Laerm;58847;52.378;4.740;2022-09-29T00:53:11;43.99;37.86;66.62;;
71034;Laerm;58847;52.378;4.740;2022-09-29T00:53:23;40.60;37.70;46.30;;
71034;Laerm;58847;52.378;4.740;2022-09-29T00:53:34;47.57;37.39;70.51;;
71034;Laerm;58847;52.378;4.740;2022-09-29T00:53:45;40.48;38.30;47.93;;
71034;Laerm;58847;52.378;4.740;2022-09-29T00:53:56;41.25;36.76;59.69;;
71034;Laerm;58847;52.378;4.740;2022-09-29T00:54:07;42.63;37.47;60.10;;
71034;Laerm;58847;52.378;4.740;2022-09-29T00:54:18;39.99;37.36;52.20;;
71034;Laerm;58847;52.378;4.740;2022-09-29T00:54:31;42.44;37.41;59.49;;
71034;Laerm;58847;52.378;4.740;2022-09-29T00:55:01;39.63;36.34;53.21;;
71034;Laerm;58847;52.378;4.740;2022-09-29T00:55:27;46.65;36.47;73.33;;
71034;Laerm;58847;52.378;4.740;2022-09-29T00:55:40;39.86;36.40;50.89;;
71034;Laerm;58847;52.378;4.740;2022-09-29T00:55:59;43.34;37.78;64.50;;
71034;Laerm;58847;52.378;4.740;2022-09-29T00:56:12;42.05;36.52;61.98;;
71034;Laerm;58847;52.378;4.740;2022-09-29T00:56:24;44.06;35.83;67.26;;
71034;Laerm;58847;52.378;4.740;2022-09-29T00:56:34;39.50;35.63;54.35;;
71034;Laerm;58847;52.378;4.740;2022-09-29T00:56:46;39.34;36.23;45.88;;
71034;Laerm;58847;52.378;4.740;2022-09-29T00:56:58;41.11;36.03;58.73;;
71034;Laerm;58847;52.378;4.740;2022-09-29T00:57:11;39.39;35.08;55.20;;
71034;Laerm;58847;52.378;4.740;2022-09-29T00:57:25;38.53;35.02;54.68;;
71034;Laerm;58847;52.378;4.740;2022-09-29T00:57:39;39.63;34.25;59.38;;
71034;Laerm;58847;52.378;4.740;2022-09-29T00:57:53;43.69;34.31;66.62;;
71034;Laerm;58847;52.378;4.740;2022-09-29T00:58:42;41.16;34.10;63.57;;
71034;Laerm;58847;52.378;4.740;2022-09-29T00:58:55;41.61;34.06;65.63;;
71034;Laerm;58847;52.378;4.740;2022-09-29T00:59:08;37.89;35.20;44.72;;
71034;Laerm;58847;52.378;4.740;2022-09-29T00:59:25;41.76;34.27;63.17;;
71034;Laerm;58847;52.378;4.740;2022-09-29T00:59:39;38.10;34.72;51.54;;
71034;Laerm;58847;52.378;4.740;2022-09-29T00:59:57;39.22;34.69;55.49;;
71034;Laerm;58847;52.378;4.740;2022-09-29T01:00:11;41.25;33.28;64.21;;
71034;Laerm;58847;52.378;4.740;2022-09-29T01:00:22;42.63;33.94;65.06;;
71034;Laerm;58847;52.378;4.740;2022-09-29T01:00:32;37.08;32.98;53.67;;
71034;Laerm;58847;52.378;4.740;2022-09-29T01:00:43;38.86;34.57;54.48;;
71034;Laerm;58847;52.378;4.740;2022-09-29T01:00:53;38.32;34.54;46.78;;
71034;Laerm;58847;52.378;4.740;2022-09-29T01:01:04;40.45;36.92;45.63;;
71034;Laerm;58847;52.378;4.740;2022-09-29T01:01:15;42.00;36.11;58.38;;
71034;Laerm;58847;52.378;4.740;2022-09-29T01:01:26;41.75;36.07;60.52;;
71034;Laerm;58847;52.378;4.740;2022-09-29T01:01:37;37.92;34.97;43.21;;
71034;Laerm;58847;52.378;4.740;2022-09-29T01:01:47;39.61;35.77;50.46;;
71034;Laerm;58847;52.378;4.740;2022-09-29T01:01:58;42.00;36.70;60.72;;
71034;Laerm;58847;52.378;4.740;2022-09-29T01:02:09;39.23;35.94;45.38;;
71034;Laerm;58847;52.378;4.740;2022-09-29T01:02:19;39.83;36.09;53.59;;
71034;Laerm;58847;52.378;4.740;2022-09-29T01:02:31;46.64;36.13;68.33;;
71034;Laerm;58847;52.378;4.740;2022-09-29T01:02:46;47.52;35.87;70.44;;
71034;Laerm;58847;52.378;4.740;2022-09-29T01:03:04;39.34;35.12;50.82;;
71034;Laerm;58847;52.378;4.740;2022-09-29T01:03:17;41.18;35.21;62.20;;
71034;Laerm;58847;52.378;4.740;2022-09-29T01:03:32;46.44;35.39;68.75;;
71034;Laerm;58847;52.378;4.740;2022-09-29T01:03:44;44.10;39.85;51.35;;
71034;Laerm;58847;52.378;4.740;2022-09-29T01:04:01;38.69;35.40;54.20;;
71034;Laerm;58847;52.378;4.740;2022-09-29T01:04:13;39.35;35.87;53.79;;
71034;Laerm;58847;52.378;4.740;2022-09-29T01:04:25;39.52;35.99;46.27;;
71034;Laerm;58847;52.378;4.740;2022-09-29T01:04:36;39.65;36.46;53.25;;
71034;Laerm;58847;52.378;4.740;2022-09-29T01:04:47;45.31;35.14;68.72;;
71034;Laerm;58847;52.378;4.740;2022-09-29T01:05:01;37.43;34.44;46.35;;
71034;Laerm;58847;52.378;4.740;2022-09-29T01:05:14;38.46;34.35;56.14;;
71034;Laerm;58847;52.378;4.740;2022-09-29T01:05:28;37.26;34.49;49.30;;
71034;Laerm;58847;52.378;4.740;2022-09-29T01:05:42;37.03;34.15;46.92;;
71034;Laerm;58847;52.378;4.740;2022-09-29T01:05:55;41.26;34.02;64.26;;
71034;Laerm;58847;52.378;4.740;2022-09-29T01:06:11;43.82;34.08;68.07;;
71034;Laerm;58847;52.378;4.740;2022-09-29T01:06:25;41.40;34.60;62.90;;
71034;Laerm;58847;52.378;4.740;2022-09-29T01:06:42;46.17;34.92;68.12;;
71034;Laerm;58847;52.378;4.740;2022-09-29T01:06:55;46.84;35.86;71.12;;
71034;Laerm;58847;52.378;4.740;2022-09-29T01:07:06;37.94;34.10;52.81;;
71034;Laerm;58847;52.378;4.740;2022-09-29T01:07:19;39.40;34.61;59.50;;
71034;Laerm;58847;52.378;4.740;2022-09-29T01:07:32;38.86;35.28;50.45;;
71034;Laerm;58847;52.378;4.740;2022-09-29T01:07:43;42.47;35.28;64.38;;
71034;Laerm;58847;52.378;4.740;2022-09-29T01:07:54;39.85;35.84;56.27;;
71034;Laerm;58847;52.378;4.740;2022-09-29T01:08:08;40.85;35.93;58.57;;
71034;Laerm;58847;52.378;4.740;2022-09-29T01:08:31;39.68;34.50;57.00;;
71034;Laerm;58847;52.378;4.740;2022-09-29T01:08:46;39.61;35.66;55.78;;
71034;Laerm;58847;52.378;4.740;2022-09-29T01:09:04;41.50;37.04;59.22;;
71034;Laerm;58847;52.378;4.740;2022-09-29T01:09:16;46.47;36.88;69.22;;
71034;Laerm;58847;52.378;4.740;2022-09-29T01:09:28;39.92;37.03;52.77;;